HLE10A EGHH-EGHH
Flight info
| Callsign | HLE10A |
|---|---|
| Flight time | 0h 28m |
| Altitude | 1500 |
| Route | VFR |
| Aircraft | A169/L-SDFGRY/C |
Departure
| Time | 2026-05-05 19:26 |
|---|---|
| Airport | Bournemouth Airport (EGHH) |
Arrival
| Time | 2026-05-05 19:55 |
|---|---|
| Airport | Bournemouth Airport (EGHH) |
| Time | Latitude | Longitude | Altitude | Speed | Heading |
|---|---|---|---|---|---|
| 2026-05-05 19:16 | 50.78146 | -1.85014 | 39 ft | 0 kts | 152° |
| 2026-05-05 19:19 | 50.78102 | -1.84992 | 39 ft | 0 kts | 152° |
| 2026-05-05 19:25 | 50.78082 | -1.84967 | 87 ft | 18 kts | 137° |
| 2026-05-05 19:26 | 50.78181 | -1.84583 | 326 ft | 69 kts | 33° |
| 2026-05-05 19:26 | 50.78567 | -1.84552 | 457 ft | 102 kts | 342° |
| 2026-05-05 19:26 | 50.79152 | -1.85404 | 767 ft | 126 kts | 306° |
| 2026-05-05 19:26 | 50.79608 | -1.86565 | 1126 ft | 124 kts | 306° |
| 2026-05-05 19:27 | 50.79960 | -1.87816 | 1393 ft | 131 kts | 283° |
| 2026-05-05 19:27 | 50.80025 | -1.89246 | 1568 ft | 132 kts | 281° |
| 2026-05-05 19:27 | 50.80064 | -1.91203 | 1552 ft | 133 kts | 281° |
| 2026-05-05 19:27 | 50.80090 | -1.92681 | 1532 ft | 136 kts | 273° |
| 2026-05-05 19:28 | 50.80030 | -1.93684 | 1521 ft | 137 kts | 269° |
| 2026-05-05 19:28 | 50.79958 | -1.95190 | 1533 ft | 137 kts | 272° |
| 2026-05-05 19:28 | 50.79863 | -1.96687 | 1531 ft | 137 kts | 272° |
| 2026-05-05 19:28 | 50.79750 | -1.98188 | 1514 ft | 141 kts | 263° |
| 2026-05-05 19:29 | 50.79333 | -1.99614 | 1538 ft | 142 kts | 248° |
| 2026-05-05 19:29 | 50.78901 | -2.01024 | 1537 ft | 142 kts | 250° |
| 2026-05-05 19:29 | 50.78460 | -2.02424 | 1537 ft | 142 kts | 250° |
| 2026-05-05 19:29 | 50.77869 | -2.04280 | 1527 ft | 143 kts | 248° |
| 2026-05-05 19:30 | 50.77180 | -2.05460 | 1524 ft | 146 kts | 227° |
| 2026-05-05 19:30 | 50.76439 | -2.06570 | 1524 ft | 146 kts | 227° |
| 2026-05-05 19:30 | 50.75956 | -2.07298 | 1522 ft | 146 kts | 227° |
| 2026-05-05 19:30 | 50.75216 | -2.08419 | 1520 ft | 147 kts | 228° |
| 2026-05-05 19:31 | 50.74232 | -2.09926 | 1511 ft | 147 kts | 228° |
| 2026-05-05 19:31 | 50.73753 | -2.10668 | 1513 ft | 147 kts | 227° |
| 2026-05-05 19:31 | 50.72772 | -2.12183 | 1521 ft | 147 kts | 227° |
| 2026-05-05 19:31 | 50.72044 | -2.13313 | 1527 ft | 146 kts | 228° |
| 2026-05-05 19:32 | 50.71559 | -2.14065 | 1528 ft | 146 kts | 228° |
| 2026-05-05 19:32 | 50.70835 | -2.15191 | 1532 ft | 146 kts | 228° |
| 2026-05-05 19:32 | 50.69872 | -2.16684 | 1515 ft | 145 kts | 228° |
| 2026-05-05 19:32 | 50.69385 | -2.17435 | 1521 ft | 145 kts | 228° |
| 2026-05-05 19:33 | 50.68658 | -2.18545 | 1509 ft | 145 kts | 228° |
| 2026-05-05 19:33 | 50.67685 | -2.20027 | 1516 ft | 146 kts | 227° |
| 2026-05-05 19:33 | 50.67199 | -2.20764 | 1522 ft | 145 kts | 228° |
| 2026-05-05 19:33 | 50.66224 | -2.22247 | 1531 ft | 146 kts | 228° |
| 2026-05-05 19:34 | 50.65741 | -2.22983 | 1532 ft | 146 kts | 228° |
| 2026-05-05 19:34 | 50.65006 | -2.24108 | 1523 ft | 146 kts | 228° |
| 2026-05-05 19:34 | 50.64038 | -2.25591 | 1523 ft | 146 kts | 228° |
| 2026-05-05 19:35 | 50.62823 | -2.27453 | 1498 ft | 146 kts | 228° |
| 2026-05-05 19:35 | 50.62100 | -2.28572 | 1493 ft | 145 kts | 227° |
| 2026-05-05 19:35 | 50.61386 | -2.29679 | 1515 ft | 146 kts | 228° |
| 2026-05-05 19:35 | 50.60659 | -2.30800 | 1525 ft | 145 kts | 228° |
| 2026-05-05 19:36 | 50.59928 | -2.31914 | 1532 ft | 145 kts | 228° |
| 2026-05-05 19:36 | 50.59203 | -2.33015 | 1528 ft | 145 kts | 228° |
| 2026-05-05 19:36 | 50.58470 | -2.34119 | 1522 ft | 145 kts | 228° |
| 2026-05-05 19:36 | 50.57747 | -2.35239 | 1513 ft | 145 kts | 233° |
| 2026-05-05 19:37 | 50.57430 | -2.36656 | 1515 ft | 135 kts | 273° |
| 2026-05-05 19:37 | 50.57350 | -2.38135 | 1532 ft | 135 kts | 273° |
| 2026-05-05 19:37 | 50.57265 | -2.39604 | 1529 ft | 135 kts | 273° |
| 2026-05-05 19:37 | 50.57151 | -2.41568 | 1526 ft | 135 kts | 272° |
| 2026-05-05 19:38 | 50.57094 | -2.42569 | 1525 ft | 135 kts | 273° |
| 2026-05-05 19:38 | 50.57207 | -2.44409 | 1049 ft | 117 kts | 297° |
| 2026-05-05 19:38 | 50.57320 | -2.45215 | 804 ft | 112 kts | 280° |
| 2026-05-05 19:38 | 50.57321 | -2.46303 | 628 ft | 87 kts | 287° |
| 2026-05-05 19:39 | 50.57577 | -2.46982 | 609 ft | 65 kts | 349° |
| 2026-05-05 19:39 | 50.57913 | -2.46732 | 565 ft | 62 kts | 68° |
| 2026-05-05 19:39 | 50.57677 | -2.46151 | 499 ft | 76 kts | 161° |
| 2026-05-05 19:39 | 50.57245 | -2.46472 | 414 ft | 67 kts | 264° |
| 2026-05-05 19:40 | 50.57391 | -2.46901 | 325 ft | 42 kts | 13° |
| 2026-05-05 19:40 | 50.57418 | -2.46500 | 210 ft | 56 kts | 136° |
| 2026-05-05 19:40 | 50.57245 | -2.46602 | 119 ft | 26 kts | 359° |
| 2026-05-05 19:40 | 50.57364 | -2.46600 | 87 ft | 26 kts | 0° |
| 2026-05-05 19:41 | 50.57492 | -2.46617 | 18 ft | 5 kts | 6° |
| 2026-05-05 19:41 | 50.57497 | -2.46616 | 3 ft | 0 kts | 6° |
| 2026-05-05 19:42 | 50.57497 | -2.46617 | 7 ft | 3 kts | 6° |
| 2026-05-05 19:42 | 50.57610 | -2.46574 | 247 ft | 46 kts | 17° |
| 2026-05-05 19:42 | 50.58411 | -2.46179 | 386 ft | 123 kts | 21° |
| 2026-05-05 19:43 | 50.58977 | -2.45851 | 480 ft | 135 kts | 22° |
| 2026-05-05 19:43 | 50.59974 | -2.44578 | 740 ft | 146 kts | 56° |
| 2026-05-05 19:43 | 50.60229 | -2.43024 | 991 ft | 149 kts | 78° |
| 2026-05-05 19:43 | 50.60330 | -2.41414 | 1212 ft | 149 kts | 80° |
| 2026-05-05 19:44 | 50.60408 | -2.40339 | 1383 ft | 149 kts | 79° |
| 2026-05-05 19:44 | 50.60514 | -2.38719 | 1559 ft | 147 kts | 79° |
| 2026-05-05 19:44 | 50.60604 | -2.37131 | 1524 ft | 148 kts | 78° |
| 2026-05-05 19:44 | 50.60734 | -2.34955 | 1495 ft | 149 kts | 78° |
| 2026-05-05 19:45 | 50.60801 | -2.33880 | 1485 ft | 149 kts | 78° |
| 2026-05-05 19:45 | 50.60902 | -2.32249 | 1490 ft | 149 kts | 78° |
| 2026-05-05 19:45 | 50.60999 | -2.30632 | 1502 ft | 148 kts | 78° |
| 2026-05-05 19:45 | 50.61133 | -2.28469 | 1494 ft | 149 kts | 78° |
| 2026-05-05 19:46 | 50.61200 | -2.27399 | 1495 ft | 149 kts | 78° |
| 2026-05-05 19:46 | 50.61303 | -2.25772 | 1500 ft | 148 kts | 78° |
| 2026-05-05 19:46 | 50.61446 | -2.23599 | 1505 ft | 148 kts | 79° |
| 2026-05-05 19:46 | 50.61516 | -2.22524 | 1495 ft | 149 kts | 78° |
| 2026-05-05 19:47 | 50.61620 | -2.20896 | 1490 ft | 149 kts | 78° |
| 2026-05-05 19:47 | 50.61721 | -2.19292 | 1499 ft | 148 kts | 78° |
| 2026-05-05 19:47 | 50.61821 | -2.17672 | 1491 ft | 149 kts | 78° |
| 2026-05-05 19:47 | 50.61953 | -2.15491 | 1512 ft | 149 kts | 79° |
| 2026-05-05 19:48 | 50.62019 | -2.14427 | 1501 ft | 149 kts | 78° |
| 2026-05-05 19:48 | 50.62116 | -2.12802 | 1468 ft | 148 kts | 78° |
| 2026-05-05 19:48 | 50.62243 | -2.10635 | 1513 ft | 148 kts | 79° |
| 2026-05-05 19:48 | 50.62306 | -2.09577 | 1522 ft | 148 kts | 78° |
| 2026-05-05 19:49 | 50.62406 | -2.07955 | 1512 ft | 149 kts | 79° |
| 2026-05-05 19:49 | 50.62509 | -2.06324 | 1489 ft | 149 kts | 78° |
| 2026-05-05 19:49 | 50.62614 | -2.04711 | 1467 ft | 149 kts | 78° |
| 2026-05-05 19:49 | 50.62785 | -2.02570 | 1469 ft | 146 kts | 66° |
| 2026-05-05 19:50 | 50.63157 | -2.01086 | 1473 ft | 145 kts | 62° |
| 2026-05-05 19:50 | 50.63403 | -2.00094 | 1493 ft | 145 kts | 63° |
| 2026-05-05 19:50 | 50.63773 | -1.98620 | 1502 ft | 145 kts | 63° |
| 2026-05-05 19:50 | 50.64138 | -1.97145 | 1489 ft | 145 kts | 63° |
| 2026-05-05 19:51 | 50.64648 | -1.95809 | 1481 ft | 142 kts | 42° |
| 2026-05-05 19:51 | 50.65360 | -1.94722 | 1488 ft | 141 kts | 41° |
| 2026-05-05 19:51 | 50.66070 | -1.93668 | 1481 ft | 141 kts | 41° |
| 2026-05-05 19:51 | 50.66786 | -1.92596 | 1488 ft | 141 kts | 41° |
| 2026-05-05 19:52 | 50.67494 | -1.91537 | 1493 ft | 141 kts | 41° |
| 2026-05-05 19:52 | 50.68199 | -1.90474 | 1499 ft | 140 kts | 40° |
| 2026-05-05 19:52 | 50.68906 | -1.89406 | 1502 ft | 140 kts | 41° |
| 2026-05-05 19:52 | 50.69618 | -1.88333 | 1494 ft | 141 kts | 41° |
| 2026-05-05 19:53 | 50.70323 | -1.87268 | 1500 ft | 140 kts | 41° |
| 2026-05-05 19:53 | 50.71028 | -1.86195 | 1500 ft | 140 kts | 41° |
| 2026-05-05 19:53 | 50.71734 | -1.85124 | 1495 ft | 141 kts | 41° |
| 2026-05-05 19:53 | 50.72436 | -1.84066 | 1480 ft | 137 kts | 38° |
| 2026-05-05 19:54 | 50.73159 | -1.83294 | 1261 ft | 112 kts | 25° |
| 2026-05-05 19:54 | 50.73809 | -1.82871 | 1011 ft | 93 kts | 33° |
| 2026-05-05 19:54 | 50.74292 | -1.82412 | 809 ft | 68 kts | 51° |
| 2026-05-05 19:54 | 50.74310 | -1.81753 | 732 ft | 64 kts | 156° |
| 2026-05-05 19:55 | 50.74033 | -1.81861 | 542 ft | 55 kts | 284° |
| 2026-05-05 19:55 | 50.74251 | -1.82260 | 418 ft | 47 kts | 1° |
| 2026-05-05 19:55 | 50.74516 | -1.82179 | 257 ft | 34 kts | 31° |
| 2026-05-05 19:55 | 50.74670 | -1.82006 | 68 ft | 6 kts | 34° |
| 2026-05-05 19:56 | 50.74667 | -1.82004 | 50 ft | 1 kts | 25° |
| 2026-05-05 19:56 | 50.74675 | -1.82000 | 37 ft | 0 kts | 20° |
| 2026-05-05 19:59 | 50.74685 | -1.81989 | 94 ft | 4 kts | 359° |
| 2026-05-05 19:59 | 50.74739 | -1.81993 | 314 ft | 17 kts | 346° |
| 2026-05-05 20:00 | 50.74897 | -1.82111 | 626 ft | 44 kts | 340° |
| 2026-05-05 20:00 | 50.75274 | -1.82438 | 781 ft | 79 kts | 336° |
| 2026-05-05 20:00 | 50.75796 | -1.82942 | 802 ft | 95 kts | 334° |
| 2026-05-05 20:00 | 50.76384 | -1.83487 | 798 ft | 100 kts | 339° |
| 2026-05-05 20:01 | 50.77013 | -1.83990 | 745 ft | 100 kts | 338° |
| 2026-05-05 20:01 | 50.77597 | -1.84471 | 487 ft | 90 kts | 330° |
| 2026-05-05 20:01 | 50.78112 | -1.84760 | 337 ft | 68 kts | 16° |
| 2026-05-05 20:01 | 50.78237 | -1.84502 | 246 ft | 39 kts | 193° |
| 2026-05-05 20:02 | 50.78104 | -1.84765 | 93 ft | 30 kts | 268° |
| 2026-05-05 20:02 | 50.78092 | -1.84962 | 55 ft | 7 kts | 326° |
| 2026-05-05 20:02 | 50.78096 | -1.84985 | 39 ft | 0 kts | 1° |